sensor_id;sensor_type;location;lat;lon;timestamp;pressure;altitude;pressure_sealevel;temperature;humidity
18900;BME280;9582;52.018;6.306;2022-11-20T00:01:04;101247.38;;;-3.49;100.00
18900;BME280;9582;52.018;6.306;2022-11-20T00:03:31;101253.47;;;-3.42;100.00
18900;BME280;9582;52.018;6.306;2022-11-20T00:05:59;101261.44;;;-3.26;100.00
18900;BME280;9582;52.018;6.306;2022-11-20T00:08:27;101256.56;;;-3.12;100.00
18900;BME280;9582;52.018;6.306;2022-11-20T00:10:54;101255.84;;;-3.05;100.00
18900;BME280;9582;52.018;6.306;2022-11-20T00:13:20;101259.28;;;-3.03;100.00
18900;BME280;9582;52.018;6.306;2022-11-20T00:15:47;101264.28;;;-3.11;100.00
18900;BME280;9582;52.018;6.306;2022-11-20T00:18:13;101261.50;;;-3.21;100.00
18900;BME280;9582;52.018;6.306;2022-11-20T00:20:40;101254.69;;;-3.22;100.00
18900;BME280;9582;52.018;6.306;2022-11-20T00:23:06;101263.38;;;-3.13;100.00
18900;BME280;9582;52.018;6.306;2022-11-20T00:25:34;101254.16;;;-3.03;100.00
18900;BME280;9582;52.018;6.306;2022-11-20T00:28:01;101252.53;;;-3.00;100.00
18900;BME280;9582;52.018;6.306;2022-11-20T00:30:27;101248.94;;;-3.09;100.00
18900;BME280;9582;52.018;6.306;2022-11-20T00:32:56;101241.09;;;-3.18;100.00
18900;BME280;9582;52.018;6.306;2022-11-20T00:35:22;101244.56;;;-3.16;100.00
18900;BME280;9582;52.018;6.306;2022-11-20T00:37:49;101244.75;;;-3.06;100.00
18900;BME280;9582;52.018;6.306;2022-11-20T00:40:15;101247.31;;;-3.04;100.00
18900;BME280;9582;52.018;6.306;2022-11-20T00:42:43;101255.84;;;-3.04;100.00
18900;BME280;9582;52.018;6.306;2022-11-20T00:45:10;101254.28;;;-2.97;100.00
18900;BME280;9582;52.018;6.306;2022-11-20T00:47:36;101243.22;;;-2.95;100.00
18900;BME280;9582;52.018;6.306;2022-11-20T00:50:04;101236.38;;;-2.96;100.00
18900;BME280;9582;52.018;6.306;2022-11-20T00:52:30;101237.25;;;-2.95;100.00
18900;BME280;9582;52.018;6.306;2022-11-20T00:54:57;101232.94;;;-2.98;100.00
18900;BME280;9582;52.018;6.306;2022-11-20T00:57:23;101230.41;;;-2.96;100.00
18900;BME280;9582;52.018;6.306;2022-11-20T00:59:51;101235.47;;;-2.99;100.00
18900;BME280;9582;52.018;6.306;2022-11-20T01:02:17;101234.53;;;-3.04;100.00
18900;BME280;9582;52.018;6.306;2022-11-20T01:04:44;101237.03;;;-3.07;100.00
18900;BME280;9582;52.018;6.306;2022-11-20T01:07:10;101235.34;;;-3.08;100.00
18900;BME280;9582;52.018;6.306;2022-11-20T01:09:37;101231.63;;;-3.24;100.00
18900;BME280;9582;52.018;6.306;2022-11-20T01:12:04;101236.50;;;-3.37;100.00
18900;BME280;9582;52.018;6.306;2022-11-20T01:14:30;101231.09;;;-3.53;100.00
18900;BME280;9582;52.018;6.306;2022-11-20T01:16:58;101241.31;;;-3.53;100.00
18900;BME280;9582;52.018;6.306;2022-11-20T01:19:25;101239.88;;;-3.38;100.00
18900;BME280;9582;52.018;6.306;2022-11-20T01:21:53;101245.22;;;-3.26;100.00
18900;BME280;9582;52.018;6.306;2022-11-20T01:24:21;101243.66;;;-3.18;100.00
18900;BME280;9582;52.018;6.306;2022-11-20T01:26:49;101237.69;;;-3.19;100.00
18900;BME280;9582;52.018;6.306;2022-11-20T01:29:18;101230.69;;;-3.29;100.00
18900;BME280;9582;52.018;6.306;2022-11-20T01:31:45;101227.84;;;-3.45;100.00
18900;BME280;9582;52.018;6.306;2022-11-20T01:34:14;101214.81;;;-3.59;100.00
18900;BME280;9582;52.018;6.306;2022-11-20T01:36:42;101211.09;;;-3.75;100.00
18900;BME280;9582;52.018;6.306;2022-11-20T01:39:11;101209.28;;;-3.80;100.00
18900;BME280;9582;52.018;6.306;2022-11-20T01:41:38;101226.53;;;-3.70;100.00
18900;BME280;9582;52.018;6.306;2022-11-20T01:44:22;101234.16;;;-3.72;100.00
18900;BME280;9582;52.018;6.306;2022-11-20T01:46:54;101221.41;;;-3.70;100.00
18900;BME280;9582;52.018;6.306;2022-11-20T01:49:28;101219.88;;;-3.62;100.00
18900;BME280;9582;52.018;6.306;2022-11-20T01:52:00;101217.44;;;-3.55;100.00
18900;BME280;9582;52.018;6.306;2022-11-20T01:54:30;101211.28;;;-3.66;100.00
18900;BME280;9582;52.018;6.306;2022-11-20T01:56:58;101209.47;;;-3.70;100.00
18900;BME280;9582;52.018;6.306;2022-11-20T01:59:27;101210.34;;;-3.71;100.00
18900;BME280;9582;52.018;6.306;2022-11-20T02:01:55;101212.09;;;-3.67;100.00
18900;BME280;9582;52.018;6.306;2022-11-20T02:04:23;101208.91;;;-3.57;100.00
18900;BME280;9582;52.018;6.306;2022-11-20T02:06:56;101203.91;;;-3.51;100.00
18900;BME280;9582;52.018;6.306;2022-11-20T02:09:25;101203.03;;;-3.51;100.00
18900;BME280;9582;52.018;6.306;2022-11-20T02:11:52;101203.97;;;-3.47;100.00
18900;BME280;9582;52.018;6.306;2022-11-20T02:14:19;101197.13;;;-3.47;100.00
18900;BME280;9582;52.018;6.306;2022-11-20T02:16:46;101195.94;;;-3.66;100.00
18900;BME280;9582;52.018;6.306;2022-11-20T02:19:19;101195.50;;;-3.90;100.00
18900;BME280;9582;52.018;6.306;2022-11-20T02:21:49;101188.34;;;-4.06;100.00
18900;BME280;9582;52.018;6.306;2022-11-20T02:24:22;101188.13;;;-4.17;100.00
18900;BME280;9582;52.018;6.306;2022-11-20T02:26:51;101180.66;;;-4.06;100.00
18900;BME280;9582;52.018;6.306;2022-11-20T02:29:23;101172.31;;;-3.97;100.00
18900;BME280;9582;52.018;6.306;2022-11-20T02:31:52;101174.75;;;-4.05;100.00
18900;BME280;9582;52.018;6.306;2022-11-20T02:34:22;101162.63;;;-4.15;100.00
18900;BME280;9582;52.018;6.306;2022-11-20T02:36:49;101166.75;;;-4.20;100.00
18900;BME280;9582;52.018;6.306;2022-11-20T02:39:19;101168.38;;;-4.25;100.00
18900;BME280;9582;52.018;6.306;2022-11-20T02:41:48;101169.44;;;-4.14;100.00
18900;BME280;9582;52.018;6.306;2022-11-20T02:44:14;101163.66;;;-4.07;100.00
18900;BME280;9582;52.018;6.306;2022-11-20T02:46:41;101157.00;;;-3.99;100.00
18900;BME280;9582;52.018;6.306;2022-11-20T02:49:07;101157.84;;;-3.98;100.00
18900;BME280;9582;52.018;6.306;2022-11-20T02:51:34;101160.50;;;-3.94;100.00
18900;BME280;9582;52.018;6.306;2022-11-20T02:54:00;101162.28;;;-3.90;100.00
18900;BME280;9582;52.018;6.306;2022-11-20T02:56:27;101175.25;;;-3.79;100.00
18900;BME280;9582;52.018;6.306;2022-11-20T02:58:55;101178.66;;;-3.79;100.00
18900;BME280;9582;52.018;6.306;2022-11-20T03:01:22;101176.00;;;-3.85;100.00
18900;BME280;9582;52.018;6.306;2022-11-20T03:03:49;101177.75;;;-3.82;100.00
18900;BME280;9582;52.018;6.306;2022-11-20T03:06:15;101173.56;;;-3.77;100.00
18900;BME280;9582;52.018;6.306;2022-11-20T03:08:42;101175.38;;;-3.73;100.00
18900;BME280;9582;52.018;6.306;2022-11-20T03:11:09;101175.47;;;-3.67;100.00
18900;BME280;9582;52.018;6.306;2022-11-20T03:13:35;101171.28;;;-3.64;100.00
18900;BME280;9582;52.018;6.306;2022-11-20T03:16:08;101164.47;;;-3.65;100.00
18900;BME280;9582;52.018;6.306;2022-11-20T03:18:35;101162.66;;;-3.70;100.00
18900;BME280;9582;52.018;6.306;2022-11-20T03:21:02;101164.34;;;-3.71;100.00
18900;BME280;9582;52.018;6.306;2022-11-20T03:23:30;101163.59;;;-3.65;100.00
18900;BME280;9582;52.018;6.306;2022-11-20T03:26:07;101163.53;;;-3.67;100.00
18900;BME280;9582;52.018;6.306;2022-11-20T03:28:34;101160.06;;;-3.72;100.00
18900;BME280;9582;52.018;6.306;2022-11-20T03:31:06;101169.50;;;-3.68;100.00
18900;BME280;9582;52.018;6.306;2022-11-20T03:33:33;101170.38;;;-3.66;100.00
18900;BME280;9582;52.018;6.306;2022-11-20T03:36:01;101170.38;;;-3.67;100.00
18900;BME280;9582;52.018;6.306;2022-11-20T03:38:28;101162.38;;;-3.84;100.00
18900;BME280;9582;52.018;6.306;2022-11-20T03:40:59;101161.41;;;-3.90;100.00
18900;BME280;9582;52.018;6.306;2022-11-20T03:43:25;101155.44;;;-3.91;100.00
18900;BME280;9582;52.018;6.306;2022-11-20T03:45:52;101154.44;;;-3.97;100.00
18900;BME280;9582;52.018;6.306;2022-11-20T03:48:20;101150.44;;;-4.28;100.00
18900;BME280;9582;52.018;6.306;2022-11-20T03:50:46;101153.47;;;-4.46;100.00
18900;BME280;9582;52.018;6.306;2022-11-20T03:53:13;101139.06;;;-4.44;100.00
18900;BME280;9582;52.018;6.306;2022-11-20T03:55:40;101139.94;;;-4.43;100.00
18900;BME280;9582;52.018;6.306;2022-11-20T03:58:07;101138.94;;;-4.48;100.00
18900;BME280;9582;52.018;6.306;2022-11-20T04:00:33;101131.22;;;-4.51;100.00
18900;BME280;9582;52.018;6.306;2022-11-20T04:03:00;101132.91;;;-4.53;100.00
18900;BME280;9582;52.018;6.306;2022-11-20T04:05:28;101130.34;;;-4.55;100.00
18900;BME280;9582;52.018;6.306;2022-11-20T04:07:55;101132.22;;;-4.45;100.00
18900;BME280;9582;52.018;6.306;2022-11-20T04:10:21;101122.97;;;-4.40;100.00
18900;BME280;9582;52.018;6.306;2022-11-20T04:12:49;101129.94;;;-4.33;100.00
18900;BME280;9582;52.018;6.306;2022-11-20T04:15:15;101123.97;;;-4.33;100.00
18900;BME280;9582;52.018;6.306;2022-11-20T04:17:42;101119.84;;;-4.27;100.00
18900;BME280;9582;52.018;6.306;2022-11-20T04:20:09;101129.31;;;-4.21;100.00
18900;BME280;9582;52.018;6.306;2022-11-20T04:22:38;101136.13;;;-4.20;100.00
18900;BME280;9582;52.018;6.306;2022-11-20T04:25:05;101136.19;;;-4.17;100.00
18900;BME280;9582;52.018;6.306;2022-11-20T04:27:31;101131.16;;;-4.14;100.00
18900;BME280;9582;52.018;6.306;2022-11-20T04:29:58;101130.34;;;-4.12;100.00
18900;BME280;9582;52.018;6.306;2022-11-20T04:32:24;101135.50;;;-4.09;100.00
18900;BME280;9582;52.018;6.306;2022-11-20T04:34:51;101132.97;;;-4.09;100.00
18900;BME280;9582;52.018;6.306;2022-11-20T04:37:17;101129.53;;;-4.11;100.00
18900;BME280;9582;52.018;6.306;2022-11-20T04:39:45;101132.94;;;-4.10;100.00
18900;BME280;9582;52.018;6.306;2022-11-20T04:42:11;101127.72;;;-4.16;100.00
18900;BME280;9582;52.018;6.306;2022-11-20T04:44:57;101131.94;;;-4.17;100.00
18900;BME280;9582;52.018;6.306;2022-11-20T04:47:23;101121.72;;;-4.18;100.00
18900;BME280;9582;52.018;6.306;2022-11-20T04:49:50;101122.34;;;-4.28;100.00
18900;BME280;9582;52.018;6.306;2022-11-20T04:52:16;101118.78;;;-4.36;100.00
18900;BME280;9582;52.018;6.306;2022-11-20T04:54:44;101116.25;;;-4.36;100.00
18900;BME280;9582;52.018;6.306;2022-11-20T04:57:13;101107.75;;;-4.35;100.00
18900;BME280;9582;52.018;6.306;2022-11-20T04:59:39;101113.00;;;-4.29;100.00
18900;BME280;9582;52.018;6.306;2022-11-20T05:02:06;101107.91;;;-4.29;100.00
18900;BME280;9582;52.018;6.306;2022-11-20T05:04:32;101111.25;;;-4.30;100.00
18900;BME280;9582;52.018;6.306;2022-11-20T05:06:59;101109.47;;;-4.34;100.00
18900;BME280;9582;52.018;6.306;2022-11-20T05:09:25;101111.06;;;-4.41;100.00
18900;BME280;9582;52.018;6.306;2022-11-20T05:11:53;101107.44;;;-4.52;100.00
18900;BME280;9582;52.018;6.306;2022-11-20T05:14:20;101112.03;;;-4.75;100.00
18900;BME280;9582;52.018;6.306;2022-11-20T05:16:46;101120.31;;;-4.85;100.00
18900;BME280;9582;52.018;6.306;2022-11-20T05:19:13;101118.69;;;-4.83;100.00
18900;BME280;9582;52.018;6.306;2022-11-20T05:21:39;101117.56;;;-4.94;100.00
18900;BME280;9582;52.018;6.306;2022-11-20T05:24:06;101125.75;;;-5.08;100.00
18900;BME280;9582;52.018;6.306;2022-11-20T05:26:32;101126.41;;;-5.15;100.00
18900;BME280;9582;52.018;6.306;2022-11-20T05:29:00;101114.69;;;-5.07;100.00
18900;BME280;9582;52.018;6.306;2022-11-20T05:31:27;101110.75;;;-4.93;100.00
18900;BME280;9582;52.018;6.306;2022-11-20T05:33:54;101108.50;;;-4.80;100.00
18900;BME280;9582;52.018;6.306;2022-11-20T05:36:21;101119.78;;;-4.70;100.00
18900;BME280;9582;52.018;6.306;2022-11-20T05:38:48;101112.28;;;-4.62;100.00
18900;BME280;9582;52.018;6.306;2022-11-20T05:41:16;101106.81;;;-4.79;100.00
18900;BME280;9582;52.018;6.306;2022-11-20T05:43:44;101098.03;;;-4.93;100.00
18900;BME280;9582;52.018;6.306;2022-11-20T05:46:14;101095.44;;;-4.95;100.00
18900;BME280;9582;52.018;6.306;2022-11-20T05:48:41;101100.72;;;-4.87;100.00
18900;BME280;9582;52.018;6.306;2022-11-20T05:51:10;101104.13;;;-4.87;100.00
18900;BME280;9582;52.018;6.306;2022-11-20T05:53:37;101097.16;;;-4.94;100.00
18900;BME280;9582;52.018;6.306;2022-11-20T05:56:06;101095.53;;;-4.92;100.00
18900;BME280;9582;52.018;6.306;2022-11-20T05:58:33;101096.41;;;-4.90;100.00
18900;BME280;9582;52.018;6.306;2022-11-20T06:01:05;101103.25;;;-4.89;100.00
18900;BME280;9582;52.018;6.306;2022-11-20T06:03:33;101099.97;;;-4.82;100.00
18900;BME280;9582;52.018;6.306;2022-11-20T06:06:01;101098.44;;;-4.74;100.00
18900;BME280;9582;52.018;6.306;2022-11-20T06:08:28;101096.81;;;-4.72;100.00
18900;BME280;9582;52.018;6.306;2022-11-20T06:10:54;101101.94;;;-4.70;100.00
18900;BME280;9582;52.018;6.306;2022-11-20T06:13:21;101113.06;;;-4.67;100.00
18900;BME280;9582;52.018;6.306;2022-11-20T06:15:49;101116.56;;;-4.63;100.00
18900;BME280;9582;52.018;6.306;2022-11-20T06:18:15;101109.78;;;-4.61;100.00
18900;BME280;9582;52.018;6.306;2022-11-20T06:20:43;101108.84;;;-4.66;100.00
18900;BME280;9582;52.018;6.306;2022-11-20T06:23:10;101114.00;;;-4.63;100.00
18900;BME280;9582;52.018;6.306;2022-11-20T06:25:37;101113.94;;;-4.64;100.00
18900;BME280;9582;52.018;6.306;2022-11-20T06:28:04;101109.72;;;-4.62;100.00
18900;BME280;9582;52.018;6.306;2022-11-20T06:30:30;101107.09;;;-4.67;100.00
18900;BME280;9582;52.018;6.306;2022-11-20T06:32:57;101108.78;;;-4.68;100.00
18900;BME280;9582;52.018;6.306;2022-11-20T06:35:23;101116.38;;;-4.71;100.00
18900;BME280;9582;52.018;6.306;2022-11-20T06:37:52;101116.31;;;-4.74;100.00
18900;BME280;9582;52.018;6.306;2022-11-20T06:40:19;101115.28;;;-4.82;100.00
18900;BME280;9582;52.018;6.306;2022-11-20T06:42:45;101108.47;;;-4.83;100.00
18900;BME280;9582;52.018;6.306;2022-11-20T06:45:11;101112.00;;;-4.76;100.00
18900;BME280;9582;52.018;6.306;2022-11-20T06:47:38;101118.91;;;-4.72;100.00
18900;BME280;9582;52.018;6.306;2022-11-20T06:50:05;101117.22;;;-4.72;100.00
18900;BME280;9582;52.018;6.306;2022-11-20T06:52:32;101114.69;;;-4.70;100.00
18900;BME280;9582;52.018;6.306;2022-11-20T06:55:00;101113.72;;;-4.75;100.00
18900;BME280;9582;52.018;6.306;2022-11-20T06:57:27;101123.00;;;-4.79;100.00
18900;BME280;9582;52.018;6.306;2022-11-20T06:59:53;101114.56;;;-4.76;100.00
18900;BME280;9582;52.018;6.306;2022-11-20T07:02:20;101113.81;;;-4.71;100.00
18900;BME280;9582;52.018;6.306;2022-11-20T07:04:46;101124.88;;;-4.72;100.00
18900;BME280;9582;52.018;6.306;2022-11-20T07:07:13;101124.81;;;-4.73;100.00
18900;BME280;9582;52.018;6.306;2022-11-20T07:09:39;101126.50;;;-4.74;100.00
18900;BME280;9582;52.018;6.306;2022-11-20T07:12:07;101130.00;;;-4.70;100.00
18900;BME280;9582;52.018;6.306;2022-11-20T07:14:34;101130.81;;;-4.71;100.00
18900;BME280;9582;52.018;6.306;2022-11-20T07:17:01;101130.03;;;-4.69;100.00
18900;BME280;9582;52.018;6.306;2022-11-20T07:19:27;101125.81;;;-4.67;100.00
18900;BME280;9582;52.018;6.306;2022-11-20T07:21:54;101130.06;;;-4.67;100.00
18900;BME280;9582;52.018;6.306;2022-11-20T07:24:20;101129.06;;;-4.74;100.00
18900;BME280;9582;52.018;6.306;2022-11-20T07:26:47;101128.25;;;-4.71;100.00
18900;BME280;9582;52.018;6.306;2022-11-20T07:29:15;101128.31;;;-4.68;100.00
18900;BME280;9582;52.018;6.306;2022-11-20T07:31:42;101129.31;;;-4.63;100.00
18900;BME280;9582;52.018;6.306;2022-11-20T07:34:09;101131.81;;;-4.64;100.00
18900;BME280;9582;52.018;6.306;2022-11-20T07:36:35;101130.03;;;-4.69;100.00
18900;BME280;9582;52.018;6.306;2022-11-20T07:39:02;101121.25;;;-4.80;100.00
18900;BME280;9582;52.018;6.306;2022-11-20T07:41:28;101123.72;;;-4.84;100.00
18900;BME280;9582;52.018;6.306;2022-11-20T07:43:54;101115.41;;;-4.77;100.00
18900;BME280;9582;52.018;6.306;2022-11-20T07:46:22;101112.94;;;-4.73;100.00
18900;BME280;9582;52.018;6.306;2022-11-20T07:48:49;101114.75;;;-4.67;100.00
18900;BME280;9582;52.018;6.306;2022-11-20T07:51:15;101109.88;;;-4.56;100.00
18900;BME280;9582;52.018;6.306;2022-11-20T07:53:42;101104.97;;;-4.47;100.00
18900;BME280;9582;52.018;6.306;2022-11-20T07:56:08;101097.44;;;-4.40;100.00
18900;BME280;9582;52.018;6.306;2022-11-20T07:58:35;101095.06;;;-4.32;100.00
18900;BME280;9582;52.018;6.306;2022-11-20T08:01:06;101096.88;;;-4.27;100.00
18900;BME280;9582;52.018;6.306;2022-11-20T08:03:34;101101.38;;;-4.14;100.00
18900;BME280;9582;52.018;6.306;2022-11-20T08:06:03;101102.41;;;-4.04;100.00
18900;BME280;9582;52.018;6.306;2022-11-20T08:08:30;101105.97;;;-3.96;100.00
18900;BME280;9582;52.018;6.306;2022-11-20T08:10:57;101104.41;;;-3.88;100.00
18900;BME280;9582;52.018;6.306;2022-11-20T08:13:44;101106.34;;;-3.75;100.00
18900;BME280;9582;52.018;6.306;2022-11-20T08:16:28;101104.78;;;-3.67;100.00
18900;BME280;9582;52.018;6.306;2022-11-20T08:18:56;101100.56;;;-3.65;100.00
18900;BME280;9582;52.018;6.306;2022-11-20T08:21:22;101098.13;;;-3.57;100.00
18900;BME280;9582;52.018;6.306;2022-11-20T08:23:49;101103.31;;;-3.53;100.00
18900;BME280;9582;52.018;6.306;2022-11-20T08:26:15;101102.69;;;-3.39;100.00
18900;BME280;9582;52.018;6.306;2022-11-20T08:28:42;101096.91;;;-3.28;100.00
18900;BME280;9582;52.018;6.306;2022-11-20T08:31:09;101093.66;;;-3.19;100.00
18900;BME280;9582;52.018;6.306;2022-11-20T08:33:35;101088.63;;;-3.10;100.00
18900;BME280;9582;52.018;6.306;2022-11-20T08:36:05;101090.50;;;-3.00;100.00
18900;BME280;9582;52.018;6.306;2022-11-20T08:38:32;101085.50;;;-2.93;100.00
18900;BME280;9582;52.018;6.306;2022-11-20T08:40:59;101093.34;;;-2.80;100.00
18900;BME280;9582;52.018;6.306;2022-11-20T08:43:43;101085.75;;;-2.73;100.00
18900;BME280;9582;52.018;6.306;2022-11-20T08:46:10;101089.31;;;-2.62;100.00
18900;BME280;9582;52.018;6.306;2022-11-20T08:48:36;101074.88;;;-2.57;100.00
18900;BME280;9582;52.018;6.306;2022-11-20T08:51:05;101082.72;;;-2.45;100.00
18900;BME280;9582;52.018;6.306;2022-11-20T08:53:31;101072.59;;;-2.36;100.00
18900;BME280;9582;52.018;6.306;2022-11-20T08:55:58;101075.28;;;-2.23;100.00
18900;BME280;9582;52.018;6.306;2022-11-20T08:58:24;101075.38;;;-2.14;100.00
18900;BME280;9582;52.018;6.306;2022-11-20T09:00:51;101074.59;;;-2.07;100.00
18900;BME280;9582;52.018;6.306;2022-11-20T09:03:18;101072.13;;;-1.98;100.00
18900;BME280;9582;52.018;6.306;2022-11-20T09:05:44;101061.06;;;-1.94;100.00
18900;BME280;9582;52.018;6.306;2022-11-20T09:08:12;101063.69;;;-1.90;100.00
18900;BME280;9582;52.018;6.306;2022-11-20T09:10:39;101055.19;;;-1.84;100.00
18900;BME280;9582;52.018;6.306;2022-11-20T09:13:05;101064.59;;;-1.80;100.00
18900;BME280;9582;52.018;6.306;2022-11-20T09:15:32;101063.78;;;-1.78;100.00
18900;BME280;9582;52.018;6.306;2022-11-20T09:18:01;101047.63;;;-1.70;100.00
18900;BME280;9582;52.018;6.306;2022-11-20T09:20:29;101056.22;;;-1.64;100.00
18900;BME280;9582;52.018;6.306;2022-11-20T09:22:56;101046.88;;;-1.59;100.00
18900;BME280;9582;52.018;6.306;2022-11-20T09:25:25;101050.31;;;-1.52;100.00
18900;BME280;9582;52.018;6.306;2022-11-20T09:27:54;101051.22;;;-1.46;100.00
18900;BME280;9582;52.018;6.306;2022-11-20T09:30:21;101053.00;;;-1.39;100.00
18900;BME280;9582;52.018;6.306;2022-11-20T09:32:47;101039.38;;;-1.29;100.00
18900;BME280;9582;52.018;6.306;2022-11-20T09:35:14;101036.03;;;-1.22;100.00
18900;BME280;9582;52.018;6.306;2022-11-20T09:37:40;101037.78;;;-1.14;100.00
18900;BME280;9582;52.018;6.306;2022-11-20T09:40:18;101028.44;;;-1.05;100.00
18900;BME280;9582;52.018;6.306;2022-11-20T09:42:52;101035.31;;;-0.96;100.00
18900;BME280;9582;52.018;6.306;2022-11-20T09:45:23;101025.09;;;-0.86;100.00
18900;BME280;9582;52.018;6.306;2022-11-20T09:48:08;101035.44;;;-0.74;100.00
18900;BME280;9582;52.018;6.306;2022-11-20T09:50:43;101036.31;;;-0.66;100.00
18900;BME280;9582;52.018;6.306;2022-11-20T09:53:22;101028.63;;;-0.58;100.00
18900;BME280;9582;52.018;6.306;2022-11-20T09:55:52;101033.81;;;-0.52;100.00
18900;BME280;9582;52.018;6.306;2022-11-20T09:58:27;101038.94;;;-0.49;100.00
18900;BME280;9582;52.018;6.306;2022-11-20T10:00:56;101028.72;;;-0.34;100.00
18900;BME280;9582;52.018;6.306;2022-11-20T10:03:37;101024.47;;;-0.26;100.00
18900;BME280;9582;52.018;6.306;2022-11-20T10:06:08;101020.19;;;-0.16;100.00
18900;BME280;9582;52.018;6.306;2022-11-20T10:08:43;101015.94;;;-0.10;100.00
18900;BME280;9582;52.018;6.306;2022-11-20T10:11:15;101021.09;;;-0.04;100.00
18900;BME280;9582;52.018;6.306;2022-11-20T10:13:53;101015.97;;;0.06;100.00
18900;BME280;9582;52.018;6.306;2022-11-20T10:16:30;101016.84;;;0.20;100.00
18900;BME280;9582;52.018;6.306;2022-11-20T10:19:11;101007.38;;;0.26;100.00
18900;BME280;9582;52.018;6.306;2022-11-20T10:21:55;100998.81;;;0.35;100.00
18900;BME280;9582;52.018;6.306;2022-11-20T10:24:39;101003.09;;;0.43;100.00
18900;BME280;9582;52.018;6.306;2022-11-20T10:27:19;100991.94;;;0.58;100.00
18900;BME280;9582;52.018;6.306;2022-11-20T10:30:00;100986.78;;;0.64;100.00
18900;BME280;9582;52.018;6.306;2022-11-20T10:32:31;100981.63;;;0.72;100.00
18900;BME280;9582;52.018;6.306;2022-11-20T10:35:02;100983.31;;;0.79;100.00
18900;BME280;9582;52.018;6.306;2022-11-20T10:37:32;100981.56;;;0.91;100.00
18900;BME280;9582;52.018;6.306;2022-11-20T10:40:03;100977.25;;;0.99;100.00
18900;BME280;9582;52.018;6.306;2022-11-20T10:42:36;100970.34;;;1.06;100.00
18900;BME280;9582;52.018;6.306;2022-11-20T10:45:17;100972.03;;;1.17;100.00
18900;BME280;9582;52.018;6.306;2022-11-20T10:47:45;100972.00;;;1.25;100.00
18900;BME280;9582;52.018;6.306;2022-11-20T10:50:15;100963.38;;;1.31;100.00
18900;BME280;9582;52.018;6.306;2022-11-20T10:52:50;100970.22;;;1.36;100.00
18900;BME280;9582;52.018;6.306;2022-11-20T10:55:27;100972.81;;;1.38;100.00
18900;BME280;9582;52.018;6.306;2022-11-20T10:58:01;100967.56;;;1.47;100.00
18900;BME280;9582;52.018;6.306;2022-11-20T11:00:33;100962.41;;;1.53;100.00
18900;BME280;9582;52.018;6.306;2022-11-20T11:03:00;100964.94;;;1.60;100.00
18900;BME280;9582;52.018;6.306;2022-11-20T11:05:36;100955.41;;;1.70;100.00
18900;BME280;9582;52.018;6.306;2022-11-20T11:08:07;100960.53;;;1.81;100.00
18900;BME280;9582;52.018;6.306;2022-11-20T11:10:42;100956.16;;;1.89;100.00
18900;BME280;9582;52.018;6.306;2022-11-20T11:13:20;100947.50;;;1.96;100.00
18900;BME280;9582;52.018;6.306;2022-11-20T11:15:48;100944.06;;;1.97;100.00
18900;BME280;9582;52.018;6.306;2022-11-20T11:18:23;100936.34;;;1.94;100.00
18900;BME280;9582;52.018;6.306;2022-11-20T11:20:50;100938.88;;;2.00;100.00
18900;BME280;9582;52.018;6.306;2022-11-20T11:23:28;100933.75;;;1.95;100.00
18900;BME280;9582;52.018;6.306;2022-11-20T11:25:57;100943.13;;;2.07;100.00
18900;BME280;9582;52.018;6.306;2022-11-20T11:28:25;100932.78;;;2.11;100.00
18900;BME280;9582;52.018;6.306;2022-11-20T11:30:54;100931.88;;;2.17;100.00
18900;BME280;9582;52.018;6.306;2022-11-20T11:33:22;100932.66;;;2.23;100.00
18900;BME280;9582;52.018;6.306;2022-11-20T11:35:50;100924.88;;;2.26;100.00
18900;BME280;9582;52.018;6.306;2022-11-20T11:38:21;100914.50;;;2.34;100.00
18900;BME280;9582;52.018;6.306;2022-11-20T11:40:49;100905.81;;;2.41;100.00
18900;BME280;9582;52.018;6.306;2022-11-20T11:43:20;100907.53;;;2.45;100.00
18900;BME280;9582;52.018;6.306;2022-11-20T11:46:24;100897.06;;;2.54;100.00
18900;BME280;9582;52.018;6.306;2022-11-20T11:48:56;100899.53;;;2.68;100.00
18900;BME280;9582;52.018;6.306;2022-11-20T11:51:26;100890.84;;;2.72;100.00
18900;BME280;9582;52.018;6.306;2022-11-20T11:53:56;100885.69;;;2.73;100.00
18900;BME280;9582;52.018;6.306;2022-11-20T11:56:34;100873.63;;;2.74;100.00
18900;BME280;9582;52.018;6.306;2022-11-20T11:59:04;100876.19;;;2.75;100.00
18900;BME280;9582;52.018;6.306;2022-11-20T12:01:38;100875.31;;;2.78;100.00
18900;BME280;9582;52.018;6.306;2022-11-20T12:04:16;100867.56;;;2.78;100.00
18900;BME280;9582;52.018;6.306;2022-11-20T12:06:47;100867.47;;;2.82;100.00
18900;BME280;9582;52.018;6.306;2022-11-20T12:09:15;100858.81;;;2.88;100.00
18900;BME280;9582;52.018;6.306;2022-11-20T12:11:48;100863.03;;;2.95;100.00
18900;BME280;9582;52.018;6.306;2022-11-20T12:14:19;100852.63;;;3.00;100.00
18900;BME280;9582;52.018;6.306;2022-11-20T12:16:51;100852.56;;;3.06;100.00
18900;BME280;9582;52.018;6.306;2022-11-20T12:19:18;100847.41;;;3.04;100.00
18900;BME280;9582;52.018;6.306;2022-11-20T12:21:54;100843.94;;;3.05;100.00
18900;BME280;9582;52.018;6.306;2022-11-20T12:27:25;100815.47;;;3.10;100.00
18900;BME280;9582;52.018;6.306;2022-11-20T12:30:01;100812.13;;;3.03;100.00
18900;BME280;9582;52.018;6.306;2022-11-20T12:35:44;100797.41;;;3.08;100.00
18900;BME280;9582;52.018;6.306;2022-11-20T12:38:39;100797.50;;;3.02;100.00
18900;BME280;9582;52.018;6.306;2022-11-20T12:41:13;100788.97;;;2.97;100.00
18900;BME280;9582;52.018;6.306;2022-11-20T12:44:10;100782.94;;;2.97;100.00
18900;BME280;9582;52.018;6.306;2022-11-20T12:47:07;100783.78;;;2.99;100.00
18900;BME280;9582;52.018;6.306;2022-11-20T12:49:41;100780.31;;;3.01;100.00
18900;BME280;9582;52.018;6.306;2022-11-20T12:52:26;100782.94;;;2.97;100.00
18900;BME280;9582;52.018;6.306;2022-11-20T12:55:12;100782.06;;;2.98;100.00
18900;BME280;9582;52.018;6.306;2022-11-20T12:57:44;100777.81;;;2.93;100.00
18900;BME280;9582;52.018;6.306;2022-11-20T13:00:18;100771.00;;;2.89;100.00
18900;BME280;9582;52.018;6.306;2022-11-20T13:03:00;100764.13;;;2.90;100.00
18900;BME280;9582;52.018;6.306;2022-11-20T13:05:39;100757.22;;;2.89;100.00
18900;BME280;9582;52.018;6.306;2022-11-20T13:08:18;100762.31;;;2.93;100.00
18900;BME280;9582;52.018;6.306;2022-11-20T13:10:50;100761.44;;;2.95;100.00